Latest Weather Observations for Grove

IDT60801

Issued at 7:03 pm EDT Friday 27 March 2015 (issued every 30 minutes, with the page automatically refreshed every 10 minutes)

About weather observations | Map of weather stations | Latest weather observations for TAS | Other Formats
Station Details ID: 094220 Name: GROVE (RESEARCH STATION) Lat: -42.99 Lon: 147.07 Height: 65.0 m
Data from the previous 72 hours. | See also: Recent months at Grove
Date/Time
EDT
Temp
°C
App
Temp
°C
Dew
Point
Rel
Hum
%
Delta-T
°C
Wind Press
QNH
hPa
Press
MSL
hPa
Rain
since 9 am
mm
Dir
 
Spd
km/h
Gust
km/h
Spd
kts
Gust
kts
27/07:00pm 11.6 9.6 8.8 83 1.4 SW 9 13 5 7 - - 10.0
27/06:30pm 11.9 10.2 9.7 86 1.1 SSW 9 15 5 8 - - 10.0
27/06:00pm 12.2 10.9 10.1 87 1.1 SW 7 9 4 5 - - 10.0
27/05:30pm 12.0 10.4 10.1 88 1.0 SW 9 13 5 7 - - 10.0
27/05:00pm 11.8 10.1 9.8 87 1.0 SW 9 19 5 10 - - 10.0
27/04:30pm 11.4 9.5 10.4 94 0.5 SW 11 17 6 9 - - 9.8
27/04:00pm 11.5 9.8 9.9 90 0.8 SW 9 17 5 9 - - 9.4
27/03:30pm 11.6 8.9 10.4 92 0.6 SW 15 28 8 15 - - 9.2
27/03:00pm 11.5 9.3 10.9 96 0.3 SW 13 24 7 13 - - 8.4
27/02:30pm 11.8 9.6 10.8 94 0.5 SW 13 22 7 12 - - 7.4
27/02:00pm 11.9 9.8 11.1 95 0.4 SW 13 26 7 14 - - 6.4
27/01:30pm 11.6 11.4 10.4 92 0.6 ENE 2 6 1 3 - - 6.0
27/01:00pm 10.9 9.6 10.1 95 0.4 NE 7 9 4 5 - - 6.0
27/12:30pm 10.3 9.9 9.7 96 0.3 E 2 9 1 5 - - 6.0
27/12:00pm 9.7 8.7 8.9 95 0.4 ESE 4 6 2 3 - - 5.8
27/11:30am 9.4 8.7 8.6 95 0.4 W 2 7 1 4 - - 5.6
27/11:00am 9.1 8.8 8.7 97 0.2 CALM 0 0 0 0 - - 5.2
27/10:30am 8.6 8.2 8.4 99 0.1 CALM 0 0 0 0 - - 4.8
27/10:00am 8.3 6.7 8.1 99 0.1 N 6 9 3 5 - - 4.2
27/09:30am 8.0 6.2 7.8 99 0.1 NE 7 9 4 5 - - 2.8
27/09:00am 7.9 5.7 7.7 99 0.1 ENE 9 13 5 7 - - 12.2
27/08:30am 7.7 6.0 7.7 100 0.0 NE 6 7 3 4 - - 9.0
27/08:00am 7.6 5.9 7.6 100 0.0 N 6 7 3 4 - - 7.6
27/07:30am 7.4 5.4 7.2 99 0.1 NNE 7 9 4 5 - - 6.6
27/07:00am 7.3 5.5 7.1 99 0.1 E 6 7 3 4 - - 5.4
27/06:30am 7.0 5.2 7.0 100 0.0 NNE 6 7 3 4 - - 4.0
27/06:00am 6.8 4.9 6.6 99 0.1 NE 6 7 3 4 - - 3.2
27/05:30am 6.7 5.9 6.5 99 0.1 CALM 0 0 0 0 - - 2.2
27/05:00am 6.6 5.8 6.4 99 0.1 CALM 0 0 0 0 - - 1.6
27/04:30am 6.3 5.4 6.1 99 0.1 CALM 0 0 0 0 - - 1.4
27/04:00am 6.1 5.2 5.9 99 0.1 CALM 0 0 0 0 - - 1.0
27/03:30am 5.9 4.9 5.7 99 0.1 CALM 0 0 0 0 - - 0.8
27/03:00am 5.7 3.5 5.5 99 0.1 NE 6 7 3 4 - - 0.8
27/02:30am 5.4 2.6 5.2 99 0.1 NE 9 11 5 6 - - 0.8
27/02:00am 5.2 4.1 5.0 99 0.1 CALM 0 0 0 0 - - 0.8
27/01:30am 5.2 3.4 5.2 100 0.0 SW 4 7 2 4 - - 0.8
27/01:00am 5.3 3.4 5.1 99 0.1 N 4 7 2 4 - - 0.8
27/12:30am 5.1 3.2 4.9 99 0.1 NNE 4 6 2 3 - - 0.8
27/12:00am 5.7 2.9 5.2 97 0.2 NNE 9 11 5 6 - - 0.8
 
Date/Time
EDT
Temp
°C
App
Temp
°C
Dew
Point
Rel
Hum
%
Delta-T
°C
Wind Press
QNH
hPa
Press
MSL
hPa
Rain
since 9 am
mm
Dir
 
Spd
km/h
Gust
km/h
Spd
kts
Gust
kts
26/11:30pm 6.2 5.2 5.8 97 0.2 CALM 0 0 0 0 - - 0.8
26/11:00pm 6.6 5.3 6.2 97 0.2 ENE 2 6 1 3 - - 0.8
26/10:30pm 7.4 6.2 6.5 94 0.4 E 2 6 1 3 - - 0.8
26/10:00pm 8.0 6.0 7.1 94 0.4 ENE 7 9 4 5 - - 0.8
26/09:30pm 8.7 8.1 7.4 91 0.6 CALM 0 0 0 0 - - 0.8
26/09:00pm 9.7 9.1 7.6 87 1.0 CALM 0 0 0 0 - - 0.8
26/08:30pm 10.0 8.3 7.5 84 1.2 WNW 6 11 3 6 - - 0.8
26/08:00pm 11.1 9.5 7.8 80 1.6 WNW 6 9 3 5 - - 0.8
26/07:30pm 12.2 9.6 6.3 67 2.8 WSW 9 13 5 7 - - 0.8
26/07:00pm 12.9 10.4 6.4 64 3.1 SSW 9 15 5 8 - - 0.8
26/06:30pm 13.5 10.1 5.9 60 3.6 SW 13 19 7 10 - - 0.8
26/06:00pm 14.1 10.8 6.4 60 3.7 SW 13 20 7 11 - - 0.8
26/05:30pm 15.0 10.6 6.6 57 4.1 WSW 19 30 10 16 - - 0.8
26/05:00pm 14.9 11.8 7.2 60 3.8 SW 13 20 7 11 - - 0.8
26/04:30pm 14.9 12.6 7.4 61 3.7 SSW 9 13 5 7 - - 0.8
26/04:00pm 14.9 12.4 8.4 65 3.3 SSW 11 15 6 8 - - 0.8
26/03:30pm 15.0 13.4 8.9 67 3.1 SW 7 15 4 8 - - 0.8
26/03:00pm 15.0 13.6 8.7 66 3.2 SSE 6 9 3 5 - - 0.8
26/02:30pm 14.0 13.0 8.7 70 2.7 SW 4 9 2 5 - - 0.8
26/02:00pm 13.7 12.3 9.0 73 2.4 SSW 6 9 3 5 - - 0.8
26/01:30pm 13.1 11.7 8.9 75 2.1 WSW 6 9 3 5 - - 0.8
26/01:00pm 12.1 10.3 8.0 76 2.0 S 7 9 4 5 - - 0.8
26/12:30pm 11.8 10.0 8.1 78 1.8 SSW 7 9 4 5 - - 0.8
26/12:00pm 11.5 9.7 9.3 86 1.1 N 9 15 5 8 - - 0.8
26/11:30am 10.1 8.9 9.7 97 0.2 SW 6 9 3 5 - - 0.8
26/11:00am 8.4 6.8 8.2 99 0.1 WSW 6 9 3 5 - - 0.8
26/10:30am 8.4 7.6 8.2 99 0.1 E 2 6 1 3 - - 0.8
26/10:00am 8.1 7.2 7.9 99 0.1 SE 2 7 1 4 - - 0.8
26/09:30am 7.6 6.7 7.6 100 0.0 N 2 9 1 5 - - 0.4
26/09:00am 7.4 5.0 7.2 99 0.1 E 9 13 5 7 - - 9.0
26/08:30am 6.9 5.0 6.9 100 0.0 W 6 7 3 4 - - 7.8
26/08:00am 6.7 5.1 6.5 99 0.1 NE 4 9 2 5 - - 5.6
26/07:30am 6.4 5.5 6.0 97 0.2 CALM 0 0 0 0 - - 1.8
26/07:00am 6.2 5.3 6.0 99 0.1 CALM 0 0 0 0 - - 0.4
26/06:30am 5.9 3.6 5.7 99 0.1 N 7 9 4 5 - - 0.2
26/06:00am 5.3 3.4 5.1 99 0.1 N 4 7 2 4 - - 0.0
26/05:30am 5.1 2.6 4.9 99 0.1 E 7 11 4 6 - - 0.0
26/05:00am 3.9 1.4 3.7 99 0.1 SW 6 9 3 5 - - 0.0
26/04:30am 4.1 1.6 3.9 99 0.1 E 6 9 3 5 - - 0.0
26/04:00am 4.7 2.2 4.7 100 0.0 N 7 9 4 5 - - 0.0
26/03:30am 4.9 1.6 4.4 97 0.2 E 11 13 6 7 - - 0.0
26/03:00am 5.4 2.6 5.2 99 0.1 N 9 13 5 7 - - 0.0
26/02:30am 5.1 2.6 4.9 99 0.1 ENE 7 11 4 6 - - 0.0
26/02:00am 5.6 3.8 5.4 99 0.1 NNW 4 9 2 5 - - 0.0
26/01:30am 5.8 3.6 5.3 97 0.2 N 6 7 3 4 - - 0.0
26/01:00am 6.7 4.5 6.0 95 0.3 ENE 7 11 4 6 - - 0.0
26/12:30am 7.1 5.0 6.7 97 0.2 N 7 11 4 6 - - 0.0
26/12:00am 7.8 6.0 7.2 96 0.3 NE 6 7 3 4 - - 0.0
 
Date/Time
EDT
Temp
°C
App
Temp
°C
Dew
Point
Rel
Hum
%
Delta-T
°C
Wind Press
QNH
hPa
Press
MSL
hPa
Rain
since 9 am
mm
Dir
 
Spd
km/h
Gust
km/h
Spd
kts
Gust
kts
25/11:30pm 7.5 6.0 6.6 94 0.4 NNE 4 7 2 4 - - 0.0
25/11:00pm 8.3 6.9 7.2 93 0.5 NE 4 9 2 5 - - 0.0
25/10:30pm 8.1 7.1 7.2 94 0.4 N 2 7 1 4 - - 0.0
25/10:00pm 8.5 7.4 7.0 90 0.7 NW 2 7 1 4 - - 0.0
25/09:30pm 10.6 9.0 7.9 83 1.3 NW 6 9 3 5 - - 0.0
25/09:00pm 12.3 10.1 8.0 75 2.1 N 9 13 5 7 - - 0.0
25/08:30pm 12.8 11.1 8.2 73 2.3 NE 7 11 4 6 - - 0.0
25/08:00pm 13.7 12.0 8.3 70 2.7 N 7 9 4 5 - - 0.0
25/07:30pm 14.7 12.9 7.2 61 3.7 E 6 11 3 6 - - 0.0
25/07:00pm 15.4 12.6 6.9 57 4.2 ESE 11 20 6 11 - - 0.0
25/06:30pm 15.8 11.2 5.6 50 4.9 E 19 28 10 15 - - 0.0
25/06:00pm 16.7 14.4 5.5 47 5.4 ESE 7 20 4 11 - - 0.0
25/05:30pm 17.3 14.5 5.0 44 5.9 N 9 11 5 6 - - 0.0
25/05:00pm 17.7 15.4 5.0 43 6.1 NNW 6 9 3 5 - - 0.0
25/04:30pm 17.8 15.5 4.6 41 6.3 S 6 9 3 5 - - 0.0
25/04:00pm 18.0 14.9 3.4 38 6.8 W 9 13 5 7 - - 0.0
25/03:30pm 17.9 14.8 3.6 38 6.7 S 9 17 5 9 - - 0.0
25/03:00pm 18.1 16.1 4.2 39 6.6 WSW 4 11 2 6 - - 0.0
25/02:30pm 18.1 16.3 5.3 43 6.2 ESE 4 6 2 3 - - 0.0
25/02:00pm 17.7 14.8 4.5 41 6.3 NW 9 15 5 8 - - 0.0
25/01:30pm 17.6 13.8 3.7 39 6.5 NW 13 22 7 12 - - 0.0
25/01:00pm 17.4 13.6 4.0 41 6.3 WNW 13 19 7 10 - - 0.0
25/12:30pm 16.9 14.0 4.4 43 5.9 NNW 9 17 5 9 - - 0.0
25/12:00pm 16.2 12.6 4.8 46 5.4 NNE 13 26 7 14 - - 0.0
25/11:30am 14.5 11.3 4.9 52 4.5 N 11 15 6 8 - - 0.0
25/11:00am 14.3 10.7 4.9 53 4.4 N 13 22 7 12 - - 0.0
25/10:30am 14.9 10.4 4.4 49 4.9 N 17 24 9 13 - - 0.0
25/10:00am 13.7 10.3 3.8 51 4.5 N 11 20 6 11 - - 0.0
25/09:30am 13.3 10.3 4.1 53 4.2 NNE 9 15 5 8 - - 0.0
25/09:00am 12.4 8.6 3.7 55 3.9 N 13 17 7 9 - - 0.0
25/08:30am 12.0 9.0 4.3 59 3.5 NE 9 13 5 7 - - 0.0
25/08:00am 10.1 7.5 4.3 67 2.6 NE 7 11 4 6 - - 0.0
25/07:30am 10.6 7.2 3.8 63 3.0 N 11 17 6 9 - - 0.0
25/07:00am 10.5 7.9 4.0 64 2.9 NNE 7 13 4 7 - - 0.0
25/06:30am 11.2 8.1 3.5 59 3.4 N 9 15 5 8 - - 0.0
25/06:00am 11.6 7.7 3.2 56 3.7 NNW 13 20 7 11 - - 0.0
25/05:30am 11.1 7.9 3.1 58 3.5 N 9 15 5 8 - - 0.0
25/05:00am 9.2 6.2 4.0 70 2.3 ENE 9 13 5 7 - - 0.0
25/04:30am 9.0 6.4 4.2 72 2.1 NNE 7 11 4 6 - - 0.0
25/04:00am 10.2 7.1 3.6 63 2.9 NNE 9 11 5 6 - - 0.0
25/03:30am 9.1 6.5 4.4 72 2.1 NE 7 11 4 6 - - 0.0
25/03:00am 8.3 5.4 4.7 78 1.6 NE 9 11 5 6 - - 0.0
25/02:30am 7.8 4.9 4.6 80 1.4 ENE 9 11 5 6 - - 0.0
25/02:00am 7.7 5.3 4.5 80 1.4 N 6 9 3 5 - - 0.0
25/01:30am 7.8 4.9 4.4 79 1.5 NE 9 11 5 6 - - 0.0
25/01:00am 7.8 4.9 4.9 82 1.3 NE 9 13 5 7 - - 0.0
25/12:30am 7.7 5.4 4.8 82 1.3 NE 6 9 3 5 - - 0.0
25/12:00am 7.9 5.0 4.7 80 1.4 ENE 9 13 5 7 - - 0.0
 
Date/Time
EDT
Temp
°C
App
Temp
°C
Dew
Point
Rel
Hum
%
Delta-T
°C
Wind Press
QNH
hPa
Press
MSL
hPa
Rain
since 9 am
mm
Dir
 
Spd
km/h
Gust
km/h
Spd
kts
Gust
kts
24/11:30pm 7.3 4.8 4.6 83 1.2 ENE 7 9 4 5 - - 0.0
24/11:00pm 7.4 4.4 3.9 78 1.5 NE 9 11 5 6 - - 0.0
24/10:30pm 8.7 6.1 4.1 73 2.0 NW 7 13 4 7 - - 0.0
24/10:00pm 8.0 5.5 4.6 79 1.5 N 7 9 4 5 - - 0.0
24/09:30pm 7.5 5.0 4.5 81 1.3 ENE 7 7 4 4 - - 0.0
24/09:00pm 8.1 6.0 5.7 85 1.1 ENE 6 7 3 4 - - 0.0
24/08:30pm 8.1 6.6 5.2 82 1.3 NE 2 7 1 4 - - 0.0
24/08:00pm 9.4 7.7 3.9 68 2.4 NE 2 7 1 4 - - 0.0
24/07:30pm 11.2 8.4 3.2 58 3.5 W 7 19 4 10 - - 0.0

Other Formats:

Comma delimited format used in spreadsheet applications
http://www.bom.gov.au/fwo/IDT60801/IDT60801.95977.axf

JavaScript Object Notation format (JSON) in row-major order
http://www.bom.gov.au/fwo/IDT60801/IDT60801.95977.json